Current Weather

Pierce County - Thun Fld

Puyallup, Washington (KPLU)

Report from: Wednesday, April 24, 2024 5:35 PM UTC
Current time: Wednesday, April 24, 2024 6:06 PM UTC

Nearby weather – Weather history – Daily summaries
Weather forecast

Temperature11.0°C (51.8°F)
Dew point7.0°C (44.6°F)
Winds Calm
Visibility9 mi. (14.5 km)
Clouds Scattered clouds 2,600 ft. (792 m)
Ceiling: Broken clouds 3,300 ft. (1,006 m)
Overcast 4,400 ft. (1,341 m)
Altimeter30.07 in.Hg (1018 mB)
Relative humidity76 %
Density altitude-503 ft. (-153 m)
Remarks Fully automated report
Automated weather observing station with precipitation discriminator
Flight conditions Visual Meteorological Conditions
Raw dataKPLU 241735Z AUTO 00000KT 9SM SCT026 BKN033 OVC044 11/07 A3007 RMK AO2
An error has occurred. This application may no longer respond until reloaded. Reload 🗙